sensor_id;sensor_type;location;lat;lon;timestamp;P1;durP1;ratioP1;P2;durP2;ratioP2
68523;SDS011;55524;51.380;13.372;2023-02-22T00:00:41;10.27;;;6.07;;
68523;SDS011;55524;51.380;13.372;2023-02-22T00:03:20;12.55;;;6.43;;
68523;SDS011;55524;51.380;13.372;2023-02-22T00:05:55;9.10;;;5.43;;
68523;SDS011;55524;51.380;13.372;2023-02-22T00:08:24;9.98;;;4.97;;
68523;SDS011;55524;51.380;13.372;2023-02-22T00:11:03;12.15;;;5.78;;
68523;SDS011;55524;51.380;13.372;2023-02-22T00:13:32;7.70;;;5.00;;
68523;SDS011;55524;51.380;13.372;2023-02-22T00:15:59;10.48;;;5.10;;
68523;SDS011;55524;51.380;13.372;2023-02-22T00:18:27;11.52;;;5.53;;
68523;SDS011;55524;51.380;13.372;2023-02-22T00:20:57;9.70;;;5.15;;
68523;SDS011;55524;51.380;13.372;2023-02-22T00:23:25;13.90;;;5.85;;
68523;SDS011;55524;51.380;13.372;2023-02-22T00:25:54;9.07;;;5.60;;
68523;SDS011;55524;51.380;13.372;2023-02-22T00:28:21;13.48;;;5.82;;
68523;SDS011;55524;51.380;13.372;2023-02-22T00:30:50;10.90;;;5.43;;
68523;SDS011;55524;51.380;13.372;2023-02-22T00:33:18;10.15;;;6.20;;
68523;SDS011;55524;51.380;13.372;2023-02-22T00:35:44;13.00;;;6.25;;
68523;SDS011;55524;51.380;13.372;2023-02-22T00:38:11;14.65;;;6.18;;
68523;SDS011;55524;51.380;13.372;2023-02-22T00:40:40;11.48;;;6.28;;
68523;SDS011;55524;51.380;13.372;2023-02-22T00:43:06;9.13;;;5.80;;
68523;SDS011;55524;51.380;13.372;2023-02-22T00:45:33;10.77;;;6.68;;
68523;SDS011;55524;51.380;13.372;2023-02-22T00:48:00;10.68;;;5.72;;
68523;SDS011;55524;51.380;13.372;2023-02-22T00:50:28;11.70;;;6.20;;
68523;SDS011;55524;51.380;13.372;2023-02-22T00:52:56;12.98;;;5.93;;
68523;SDS011;55524;51.380;13.372;2023-02-22T00:55:27;10.77;;;5.93;;
68523;SDS011;55524;51.380;13.372;2023-02-22T00:57:56;9.57;;;5.65;;
68523;SDS011;55524;51.380;13.372;2023-02-22T01:00:36;11.73;;;6.50;;
68523;SDS011;55524;51.380;13.372;2023-02-22T01:03:06;13.43;;;6.68;;
68523;SDS011;55524;51.380;13.372;2023-02-22T01:05:34;17.45;;;7.72;;
68523;SDS011;55524;51.380;13.372;2023-02-22T01:08:02;17.77;;;8.10;;
68523;SDS011;55524;51.380;13.372;2023-02-22T01:10:31;17.58;;;7.85;;
68523;SDS011;55524;51.380;13.372;2023-02-22T01:12:58;17.88;;;8.70;;
68523;SDS011;55524;51.380;13.372;2023-02-22T01:15:27;16.38;;;8.10;;
68523;SDS011;55524;51.380;13.372;2023-02-22T01:17:54;15.80;;;7.82;;
68523;SDS011;55524;51.380;13.372;2023-02-22T01:20:22;15.25;;;7.95;;
68523;SDS011;55524;51.380;13.372;2023-02-22T01:22:50;19.02;;;8.30;;
68523;SDS011;55524;51.380;13.372;2023-02-22T01:25:19;16.50;;;8.38;;
68523;SDS011;55524;51.380;13.372;2023-02-22T01:27:48;16.42;;;8.15;;
68523;SDS011;55524;51.380;13.372;2023-02-22T01:30:15;15.30;;;7.63;;
68523;SDS011;55524;51.380;13.372;2023-02-22T01:32:46;23.05;;;8.95;;
68523;SDS011;55524;51.380;13.372;2023-02-22T01:35:15;17.15;;;7.80;;
68523;SDS011;55524;51.380;13.372;2023-02-22T01:37:43;15.70;;;7.88;;
68523;SDS011;55524;51.380;13.372;2023-02-22T01:40:17;17.05;;;7.95;;
68523;SDS011;55524;51.380;13.372;2023-02-22T01:42:55;16.02;;;7.93;;
68523;SDS011;55524;51.380;13.372;2023-02-22T01:50:27;15.90;;;8.02;;
68523;SDS011;55524;51.380;13.372;2023-02-22T01:52:57;10.73;;;6.25;;
68523;SDS011;55524;51.380;13.372;2023-02-22T01:55:24;11.27;;;6.13;;
68523;SDS011;55524;51.380;13.372;2023-02-22T01:57:50;16.35;;;7.45;;
68523;SDS011;55524;51.380;13.372;2023-02-22T02:00:18;13.60;;;6.95;;
68523;SDS011;55524;51.380;13.372;2023-02-22T02:02:50;13.30;;;6.60;;
68523;SDS011;55524;51.380;13.372;2023-02-22T02:05:26;14.75;;;7.22;;
68523;SDS011;55524;51.380;13.372;2023-02-22T02:07:56;13.63;;;7.15;;
68523;SDS011;55524;51.380;13.372;2023-02-22T02:10:27;14.23;;;7.03;;
68523;SDS011;55524;51.380;13.372;2023-02-22T02:12:55;12.18;;;6.43;;
68523;SDS011;55524;51.380;13.372;2023-02-22T02:15:25;14.27;;;7.13;;
68523;SDS011;55524;51.380;13.372;2023-02-22T02:17:54;16.40;;;6.60;;
68523;SDS011;55524;51.380;13.372;2023-02-22T02:35:48;24.30;;;9.30;;
68523;SDS011;55524;51.380;13.372;2023-02-22T02:38:30;21.85;;;9.30;;
68523;SDS011;55524;51.380;13.372;2023-02-22T02:41:11;20.40;;;8.75;;
68523;SDS011;55524;51.380;13.372;2023-02-22T02:44:05;26.80;;;9.70;;
68523;SDS011;55524;51.380;13.372;2023-02-22T02:46:39;25.05;;;9.55;;
68523;SDS011;55524;51.380;13.372;2023-02-22T02:49:48;23.48;;;9.63;;
68523;SDS011;55524;51.380;13.372;2023-02-22T02:54:51;21.45;;;8.98;;
68523;SDS011;55524;51.380;13.372;2023-02-22T02:57:19;28.48;;;9.68;;
68523;SDS011;55524;51.380;13.372;2023-02-22T02:59:45;24.23;;;9.77;;
68523;SDS011;55524;51.380;13.372;2023-02-22T03:05:21;19.77;;;9.27;;
68523;SDS011;55524;51.380;13.372;2023-02-22T03:11:07;22.77;;;9.40;;
68523;SDS011;55524;51.380;13.372;2023-02-22T03:16:19;16.95;;;7.40;;
68523;SDS011;55524;51.380;13.372;2023-02-22T03:26:45;20.00;;;7.78;;
68523;SDS011;55524;51.380;13.372;2023-02-22T03:29:38;12.10;;;6.45;;
68523;SDS011;55524;51.380;13.372;2023-02-22T03:32:10;14.02;;;6.07;;
68523;SDS011;55524;51.380;13.372;2023-02-22T03:37:17;20.30;;;6.75;;
68523;SDS011;55524;51.380;13.372;2023-02-22T03:39:48;19.70;;;7.03;;
68523;SDS011;55524;51.380;13.372;2023-02-22T03:42:53;13.60;;;5.20;;
68523;SDS011;55524;51.380;13.372;2023-02-22T03:45:13;15.43;;;5.10;;
68523;SDS011;55524;51.380;13.372;2023-02-22T03:47:43;11.23;;;5.22;;
68523;SDS011;55524;51.380;13.372;2023-02-22T03:50:20;8.13;;;4.90;;
68523;SDS011;55524;51.380;13.372;2023-02-22T03:52:51;13.32;;;5.82;;
68523;SDS011;55524;51.380;13.372;2023-02-22T03:55:17;10.30;;;5.47;;
68523;SDS011;55524;51.380;13.372;2023-02-22T03:57:45;12.23;;;4.88;;
68523;SDS011;55524;51.380;13.372;2023-02-22T04:00:21;9.68;;;5.07;;
68523;SDS011;55524;51.380;13.372;2023-02-22T04:02:49;10.88;;;4.88;;
68523;SDS011;55524;51.380;13.372;2023-02-22T04:05:16;11.75;;;4.97;;
68523;SDS011;55524;51.380;13.372;2023-02-22T04:07:42;10.85;;;4.47;;
68523;SDS011;55524;51.380;13.372;2023-02-22T04:10:09;8.73;;;4.25;;
68523;SDS011;55524;51.380;13.372;2023-02-22T04:12:37;7.50;;;4.55;;
68523;SDS011;55524;51.380;13.372;2023-02-22T04:15:04;9.80;;;5.13;;
68523;SDS011;55524;51.380;13.372;2023-02-22T04:17:32;10.80;;;4.93;;
68523;SDS011;55524;51.380;13.372;2023-02-22T04:19:58;10.88;;;4.65;;
68523;SDS011;55524;51.380;13.372;2023-02-22T04:22:25;10.07;;;4.68;;
68523;SDS011;55524;51.380;13.372;2023-02-22T04:24:51;13.18;;;4.63;;
68523;SDS011;55524;51.380;13.372;2023-02-22T04:27:17;12.43;;;4.68;;
68523;SDS011;55524;51.380;13.372;2023-02-22T04:29:43;12.82;;;4.95;;
68523;SDS011;55524;51.380;13.372;2023-02-22T04:32:10;15.02;;;4.75;;
68523;SDS011;55524;51.380;13.372;2023-02-22T04:34:36;19.05;;;5.68;;
68523;SDS011;55524;51.380;13.372;2023-02-22T04:37:02;17.42;;;5.53;;
68523;SDS011;55524;51.380;13.372;2023-02-22T04:39:29;23.90;;;9.80;;
68523;SDS011;55524;51.380;13.372;2023-02-22T04:41:55;17.60;;;8.40;;
68523;SDS011;55524;51.380;13.372;2023-02-22T04:44:21;17.70;;;7.75;;
68523;SDS011;55524;51.380;13.372;2023-02-22T04:46:47;14.40;;;7.32;;
68523;SDS011;55524;51.380;13.372;2023-02-22T04:49:14;12.85;;;6.53;;
68523;SDS011;55524;51.380;13.372;2023-02-22T04:51:40;19.63;;;5.93;;
68523;SDS011;55524;51.380;13.372;2023-02-22T04:54:06;17.45;;;5.93;;
68523;SDS011;55524;51.380;13.372;2023-02-22T04:56:33;14.07;;;6.22;;
68523;SDS011;55524;51.380;13.372;2023-02-22T04:58:59;15.23;;;6.32;;
68523;SDS011;55524;51.380;13.372;2023-02-22T05:01:29;21.88;;;6.90;;
68523;SDS011;55524;51.380;13.372;2023-02-22T05:03:57;15.55;;;6.88;;
68523;SDS011;55524;51.380;13.372;2023-02-22T05:06:25;15.50;;;6.75;;
68523;SDS011;55524;51.380;13.372;2023-02-22T05:08:51;15.27;;;6.45;;
68523;SDS011;55524;51.380;13.372;2023-02-22T05:11:17;16.55;;;6.82;;
68523;SDS011;55524;51.380;13.372;2023-02-22T05:13:44;14.40;;;6.50;;
68523;SDS011;55524;51.380;13.372;2023-02-22T05:16:10;16.95;;;6.78;;
68523;SDS011;55524;51.380;13.372;2023-02-22T05:18:37;12.52;;;6.65;;
68523;SDS011;55524;51.380;13.372;2023-02-22T05:21:03;18.35;;;7.45;;
68523;SDS011;55524;51.380;13.372;2023-02-22T05:23:31;16.08;;;6.53;;
68523;SDS011;55524;51.380;13.372;2023-02-22T05:25:58;17.70;;;7.03;;
68523;SDS011;55524;51.380;13.372;2023-02-22T05:28:25;18.33;;;7.22;;
68523;SDS011;55524;51.380;13.372;2023-02-22T05:30:51;21.38;;;7.05;;
68523;SDS011;55524;51.380;13.372;2023-02-22T05:33:18;12.98;;;6.55;;
68523;SDS011;55524;51.380;13.372;2023-02-22T05:35:44;18.77;;;6.90;;
68523;SDS011;55524;51.380;13.372;2023-02-22T05:38:14;16.23;;;6.90;;
68523;SDS011;55524;51.380;13.372;2023-02-22T05:40:41;17.45;;;7.50;;
68523;SDS011;55524;51.380;13.372;2023-02-22T05:43:08;24.58;;;7.32;;
68523;SDS011;55524;51.380;13.372;2023-02-22T05:45:34;21.17;;;7.07;;
68523;SDS011;55524;51.380;13.372;2023-02-22T05:48:00;18.20;;;6.75;;
68523;SDS011;55524;51.380;13.372;2023-02-22T05:50:27;16.27;;;6.85;;
68523;SDS011;55524;51.380;13.372;2023-02-22T05:52:53;18.88;;;6.97;;
68523;SDS011;55524;51.380;13.372;2023-02-22T05:55:20;21.70;;;6.72;;
68523;SDS011;55524;51.380;13.372;2023-02-22T05:57:47;22.17;;;7.50;;
68523;SDS011;55524;51.380;13.372;2023-02-22T06:00:24;18.10;;;6.03;;
68523;SDS011;55524;51.380;13.372;2023-02-22T06:02:53;20.27;;;6.82;;
68523;SDS011;55524;51.380;13.372;2023-02-22T06:05:30;20.58;;;8.07;;
68523;SDS011;55524;51.380;13.372;2023-02-22T06:07:57;15.50;;;6.82;;
68523;SDS011;55524;51.380;13.372;2023-02-22T06:10:24;20.65;;;6.90;;
68523;SDS011;55524;51.380;13.372;2023-02-22T06:12:51;18.15;;;7.13;;
68523;SDS011;55524;51.380;13.372;2023-02-22T06:15:18;16.65;;;6.75;;
68523;SDS011;55524;51.380;13.372;2023-02-22T06:17:45;21.65;;;7.30;;
68523;SDS011;55524;51.380;13.372;2023-02-22T06:20:13;18.10;;;7.38;;
68523;SDS011;55524;51.380;13.372;2023-02-22T06:22:41;14.57;;;7.03;;
68523;SDS011;55524;51.380;13.372;2023-02-22T06:25:09;16.48;;;6.55;;
68523;SDS011;55524;51.380;13.372;2023-02-22T06:27:39;21.42;;;7.30;;
68523;SDS011;55524;51.380;13.372;2023-02-22T06:30:06;17.88;;;8.00;;
68523;SDS011;55524;51.380;13.372;2023-02-22T06:32:34;20.73;;;8.70;;
68523;SDS011;55524;51.380;13.372;2023-02-22T06:35:00;17.00;;;7.32;;
68523;SDS011;55524;51.380;13.372;2023-02-22T06:37:26;22.48;;;8.30;;
68523;SDS011;55524;51.380;13.372;2023-02-22T06:39:53;19.65;;;7.53;;
68523;SDS011;55524;51.380;13.372;2023-02-22T06:42:19;21.85;;;7.75;;
68523;SDS011;55524;51.380;13.372;2023-02-22T06:44:45;23.48;;;7.45;;
68523;SDS011;55524;51.380;13.372;2023-02-22T06:47:12;23.33;;;8.00;;
68523;SDS011;55524;51.380;13.372;2023-02-22T06:49:38;25.65;;;8.43;;
68523;SDS011;55524;51.380;13.372;2023-02-22T06:52:05;24.60;;;8.55;;
68523;SDS011;55524;51.380;13.372;2023-02-22T06:54:32;29.30;;;9.20;;
68523;SDS011;55524;51.380;13.372;2023-02-22T06:56:59;20.80;;;8.27;;
68523;SDS011;55524;51.380;13.372;2023-02-22T06:59:25;24.15;;;8.98;;
68523;SDS011;55524;51.380;13.372;2023-02-22T07:01:52;28.98;;;9.57;;
68523;SDS011;55524;51.380;13.372;2023-02-22T07:04:18;28.50;;;9.82;;
68523;SDS011;55524;51.380;13.372;2023-02-22T07:06:45;31.75;;;10.70;;
68523;SDS011;55524;51.380;13.372;2023-02-22T07:09:13;30.08;;;10.35;;
68523;SDS011;55524;51.380;13.372;2023-02-22T07:11:40;30.17;;;13.07;;
68523;SDS011;55524;51.380;13.372;2023-02-22T07:14:07;48.97;;;25.00;;
68523;SDS011;55524;51.380;13.372;2023-02-22T07:16:34;50.72;;;23.90;;
68523;SDS011;55524;51.380;13.372;2023-02-22T07:19:00;31.77;;;13.25;;
68523;SDS011;55524;51.380;13.372;2023-02-22T07:21:27;35.40;;;13.00;;
68523;SDS011;55524;51.380;13.372;2023-02-22T07:23:55;33.88;;;12.48;;
68523;SDS011;55524;51.380;13.372;2023-02-22T07:26:23;41.35;;;13.02;;
68523;SDS011;55524;51.380;13.372;2023-02-22T07:28:50;31.98;;;12.00;;
68523;SDS011;55524;51.380;13.372;2023-02-22T07:31:16;34.38;;;13.40;;
68523;SDS011;55524;51.380;13.372;2023-02-22T07:33:45;30.88;;;10.30;;
68523;SDS011;55524;51.380;13.372;2023-02-22T07:36:13;33.78;;;11.13;;
68523;SDS011;55524;51.380;13.372;2023-02-22T07:38:42;36.17;;;11.73;;
68523;SDS011;55524;51.380;13.372;2023-02-22T07:41:09;27.45;;;10.20;;
68523;SDS011;55524;51.380;13.372;2023-02-22T07:43:35;32.20;;;9.98;;
68523;SDS011;55524;51.380;13.372;2023-02-22T07:46:02;30.92;;;11.82;;
68523;SDS011;55524;51.380;13.372;2023-02-22T07:48:29;28.73;;;12.05;;
68523;SDS011;55524;51.380;13.372;2023-02-22T07:50:56;34.40;;;11.38;;
68523;SDS011;55524;51.380;13.372;2023-02-22T07:53:24;36.58;;;10.43;;
68523;SDS011;55524;51.380;13.372;2023-02-22T07:55:54;32.30;;;10.43;;
68523;SDS011;55524;51.380;13.372;2023-02-22T08:00:53;47.53;;;11.15;;
68523;SDS011;55524;51.380;13.372;2023-02-22T08:03:20;41.47;;;11.52;;
68523;SDS011;55524;51.380;13.372;2023-02-22T08:05:49;36.85;;;12.27;;
68523;SDS011;55524;51.380;13.372;2023-02-22T08:08:17;41.90;;;10.98;;
68523;SDS011;55524;51.380;13.372;2023-02-22T08:10:44;38.15;;;11.85;;
68523;SDS011;55524;51.380;13.372;2023-02-22T08:13:12;48.75;;;12.27;;
68523;SDS011;55524;51.380;13.372;2023-02-22T08:15:39;113.60;;;29.80;;
68523;SDS011;55524;51.380;13.372;2023-02-22T08:18:09;65.90;;;24.63;;
68523;SDS011;55524;51.380;13.372;2023-02-22T08:20:39;61.53;;;28.60;;
68523;SDS011;55524;51.380;13.372;2023-02-22T08:23:06;35.33;;;11.50;;
68523;SDS011;55524;51.380;13.372;2023-02-22T08:25:34;39.42;;;11.30;;
68523;SDS011;55524;51.380;13.372;2023-02-22T08:28:01;37.65;;;12.05;;
68523;SDS011;55524;51.380;13.372;2023-02-22T08:30:33;40.63;;;12.63;;
68523;SDS011;55524;51.380;13.372;2023-02-22T08:33:00;55.63;;;21.95;;
68523;SDS011;55524;51.380;13.372;2023-02-22T08:35:28;44.30;;;17.67;;
68523;SDS011;55524;51.380;13.372;2023-02-22T08:38:03;39.67;;;14.68;;
68523;SDS011;55524;51.380;13.372;2023-02-22T08:40:31;39.22;;;14.43;;
68523;SDS011;55524;51.380;13.372;2023-02-22T08:43:00;38.15;;;11.57;;
68523;SDS011;55524;51.380;13.372;2023-02-22T08:45:28;41.83;;;11.65;;
68523;SDS011;55524;51.380;13.372;2023-02-22T08:47:54;32.83;;;12.35;;
68523;SDS011;55524;51.380;13.372;2023-02-22T08:50:23;44.13;;;12.88;;
68523;SDS011;55524;51.380;13.372;2023-02-22T08:52:52;34.95;;;11.98;;
68523;SDS011;55524;51.380;13.372;2023-02-22T08:55:20;43.50;;;12.30;;
68523;SDS011;55524;51.380;13.372;2023-02-22T08:57:47;34.60;;;11.23;;
68523;SDS011;55524;51.380;13.372;2023-02-22T09:00:15;34.40;;;11.93;;
68523;SDS011;55524;51.380;13.372;2023-02-22T09:02:42;34.35;;;11.82;;
68523;SDS011;55524;51.380;13.372;2023-02-22T09:05:09;32.72;;;11.23;;
68523;SDS011;55524;51.380;13.372;2023-02-22T09:07:36;63.80;;;26.90;;
68523;SDS011;55524;51.380;13.372;2023-02-22T09:10:06;36.63;;;12.47;;
68523;SDS011;55524;51.380;13.372;2023-02-22T09:12:39;40.70;;;12.27;;
68523;SDS011;55524;51.380;13.372;2023-02-22T09:15:06;34.50;;;12.23;;
68523;SDS011;55524;51.380;13.372;2023-02-22T09:17:33;38.45;;;12.05;;
68523;SDS011;55524;51.380;13.372;2023-02-22T09:20:02;29.45;;;11.27;;
68523;SDS011;55524;51.380;13.372;2023-02-22T09:22:31;33.35;;;11.55;;
68523;SDS011;55524;51.380;13.372;2023-02-22T09:24:58;26.65;;;10.95;;
68523;SDS011;55524;51.380;13.372;2023-02-22T09:27:25;32.85;;;10.82;;
68523;SDS011;55524;51.380;13.372;2023-02-22T09:29:57;28.70;;;11.63;;
68523;SDS011;55524;51.380;13.372;2023-02-22T09:32:24;39.63;;;12.60;;
68523;SDS011;55524;51.380;13.372;2023-02-22T09:34:52;31.38;;;12.23;;
68523;SDS011;55524;51.380;13.372;2023-02-22T09:37:20;28.77;;;11.90;;
68523;SDS011;55524;51.380;13.372;2023-02-22T09:39:46;29.25;;;11.88;;
68523;SDS011;55524;51.380;13.372;2023-02-22T09:42:47;29.92;;;10.95;;
68523;SDS011;55524;51.380;13.372;2023-02-22T09:45:20;35.35;;;12.65;;
68523;SDS011;55524;51.380;13.372;2023-02-22T09:47:52;29.00;;;11.30;;
68523;SDS011;55524;51.380;13.372;2023-02-22T09:55:46;31.17;;;11.50;;
68523;SDS011;55524;51.380;13.372;2023-02-22T10:00:47;32.65;;;12.05;;
68523;SDS011;55524;51.380;13.372;2023-02-22T10:03:33;36.45;;;13.05;;
68523;SDS011;55524;51.380;13.372;2023-02-22T10:06:10;30.30;;;12.40;;
68523;SDS011;55524;51.380;13.372;2023-02-22T10:08:39;35.65;;;12.52;;
68523;SDS011;55524;51.380;13.372;2023-02-22T10:21:59;32.42;;;12.25;;
68523;SDS011;55524;51.380;13.372;2023-02-22T10:25:24;28.73;;;11.30;;
68523;SDS011;55524;51.380;13.372;2023-02-22T10:30:25;37.85;;;12.13;;
68523;SDS011;55524;51.380;13.372;2023-02-22T10:35:46;28.73;;;11.95;;
68523;SDS011;55524;51.380;13.372;2023-02-22T10:40:48;30.08;;;11.43;;
68523;SDS011;55524;51.380;13.372;2023-02-22T10:43:35;30.15;;;10.90;;
68523;SDS011;55524;51.380;13.372;2023-02-22T10:46:03;24.20;;;10.50;;
68523;SDS011;55524;51.380;13.372;2023-02-22T10:48:34;25.70;;;11.07;;
68523;SDS011;55524;51.380;13.372;2023-02-22T10:51:04;26.83;;;10.98;;
68523;SDS011;55524;51.380;13.372;2023-02-22T10:53:32;30.42;;;11.65;;
68523;SDS011;55524;51.380;13.372;2023-02-22T10:56:10;54.67;;;12.52;;
68523;SDS011;55524;51.380;13.372;2023-02-22T11:03:54;24.30;;;10.73;;
68523;SDS011;55524;51.380;13.372;2023-02-22T11:06:37;24.75;;;10.60;;
68523;SDS011;55524;51.380;13.372;2023-02-22T11:11:34;30.92;;;11.32;;
68523;SDS011;55524;51.380;13.372;2023-02-22T11:14:01;31.90;;;11.50;;
68523;SDS011;55524;51.380;13.372;2023-02-22T11:16:32;34.90;;;12.43;;
68523;SDS011;55524;51.380;13.372;2023-02-22T11:21:44;29.98;;;10.93;;
68523;SDS011;55524;51.380;13.372;2023-02-22T11:24:15;24.92;;;11.48;;
68523;SDS011;55524;51.380;13.372;2023-02-22T11:26:43;26.67;;;10.80;;
68523;SDS011;55524;51.380;13.372;2023-02-22T11:32:01;24.17;;;10.18;;
68523;SDS011;55524;51.380;13.372;2023-02-22T11:34:39;22.98;;;10.35;;
68523;SDS011;55524;51.380;13.372;2023-02-22T11:42:31;23.63;;;9.73;;
68523;SDS011;55524;51.380;13.372;2023-02-22T11:47:48;20.95;;;9.23;;
68523;SDS011;55524;51.380;13.372;2023-02-22T12:01:04;19.88;;;8.55;;
68523;SDS011;55524;51.380;13.372;2023-02-22T12:09:27;19.95;;;9.55;;
68523;SDS011;55524;51.380;13.372;2023-02-22T12:17:38;19.88;;;7.95;;
68523;SDS011;55524;51.380;13.372;2023-02-22T12:20:20;17.42;;;8.38;;
68523;SDS011;55524;51.380;13.372;2023-02-22T12:25:37;22.25;;;9.05;;
68523;SDS011;55524;51.380;13.372;2023-02-22T12:30:46;17.33;;;8.23;;
68523;SDS011;55524;51.380;13.372;2023-02-22T12:33:45;16.45;;;8.60;;
68523;SDS011;55524;51.380;13.372;2023-02-22T12:36:20;19.27;;;9.10;;
68523;SDS011;55524;51.380;13.372;2023-02-22T12:38:56;20.52;;;9.10;;
68523;SDS011;55524;51.380;13.372;2023-02-22T12:44:06;23.88;;;8.57;;
68523;SDS011;55524;51.380;13.372;2023-02-22T12:46:49;17.27;;;7.80;;
68523;SDS011;55524;51.380;13.372;2023-02-22T12:51:59;19.33;;;8.27;;
68523;SDS011;55524;51.380;13.372;2023-02-22T12:54:47;17.55;;;8.35;;
68523;SDS011;55524;51.380;13.372;2023-02-22T13:00:34;16.83;;;7.97;;
68523;SDS011;55524;51.380;13.372;2023-02-22T13:03:37;25.98;;;11.55;;
68523;SDS011;55524;51.380;13.372;2023-02-22T13:09:17;26.70;;;10.98;;
68523;SDS011;55524;51.380;13.372;2023-02-22T13:12:02;31.50;;;12.73;;
68523;SDS011;55524;51.380;13.372;2023-02-22T13:15:12;29.05;;;11.43;;
68523;SDS011;55524;51.380;13.372;2023-02-22T13:17:45;18.55;;;8.25;;
68523;SDS011;55524;51.380;13.372;2023-02-22T13:20:24;24.90;;;10.20;;
68523;SDS011;55524;51.380;13.372;2023-02-22T13:28:18;18.45;;;8.93;;
68523;SDS011;55524;51.380;13.372;2023-02-22T13:45:19;17.05;;;8.75;;
68523;SDS011;55524;51.380;13.372;2023-02-22T13:47:58;25.00;;;9.18;;
68523;SDS011;55524;51.380;13.372;2023-02-22T13:53:54;24.27;;;9.25;;
68523;SDS011;55524;51.380;13.372;2023-02-22T13:56:29;20.17;;;8.88;;
68523;SDS011;55524;51.380;13.372;2023-02-22T13:58:57;18.48;;;8.43;;
68523;SDS011;55524;51.380;13.372;2023-02-22T14:01:46;20.20;;;8.77;;
68523;SDS011;55524;51.380;13.372;2023-02-22T14:04:20;17.15;;;8.52;;
68523;SDS011;55524;51.380;13.372;2023-02-22T14:06:58;17.13;;;8.85;;
68523;SDS011;55524;51.380;13.372;2023-02-22T14:09:43;13.45;;;7.57;;
68523;SDS011;55524;51.380;13.372;2023-02-22T14:20:34;13.90;;;8.02;;
68523;SDS011;55524;51.380;13.372;2023-02-22T14:31:25;16.48;;;8.18;;
68523;SDS011;55524;51.380;13.372;2023-02-22T14:36:54;21.80;;;8.88;;
68523;SDS011;55524;51.380;13.372;2023-02-22T14:39:36;14.90;;;7.22;;
68523;SDS011;55524;51.380;13.372;2023-02-22T14:42:12;13.03;;;7.13;;
68523;SDS011;55524;51.380;13.372;2023-02-22T14:47:26;14.60;;;7.22;;
68523;SDS011;55524;51.380;13.372;2023-02-22T14:50:07;13.05;;;7.15;;
68523;SDS011;55524;51.380;13.372;2023-02-22T14:52:47;12.85;;;6.90;;
68523;SDS011;55524;51.380;13.372;2023-02-22T14:55:55;16.27;;;7.18;;
68523;SDS011;55524;51.380;13.372;2023-02-22T14:58:39;12.82;;;6.95;;
68523;SDS011;55524;51.380;13.372;2023-02-22T15:01:32;13.30;;;6.88;;
68523;SDS011;55524;51.380;13.372;2023-02-22T15:04:16;13.98;;;7.57;;
68523;SDS011;55524;51.380;13.372;2023-02-22T15:06:42;12.60;;;6.95;;
68523;SDS011;55524;51.380;13.372;2023-02-22T15:09:13;10.82;;;6.35;;
68523;SDS011;55524;51.380;13.372;2023-02-22T15:14:29;13.32;;;7.25;;
68523;SDS011;55524;51.380;13.372;2023-02-22T15:17:02;11.38;;;6.13;;
68523;SDS011;55524;51.380;13.372;2023-02-22T15:19:43;12.23;;;5.88;;
68523;SDS011;55524;51.380;13.372;2023-02-22T15:22:19;13.45;;;6.43;;
68523;SDS011;55524;51.380;13.372;2023-02-22T15:25:03;10.30;;;6.20;;
68523;SDS011;55524;51.380;13.372;2023-02-22T15:27:32;13.05;;;6.13;;
68523;SDS011;55524;51.380;13.372;2023-02-22T15:30:14;10.45;;;6.28;;
68523;SDS011;55524;51.380;13.372;2023-02-22T15:32:46;13.68;;;6.45;;
68523;SDS011;55524;51.380;13.372;2023-02-22T15:35:14;11.48;;;6.40;;
68523;SDS011;55524;51.380;13.372;2023-02-22T15:40:26;12.10;;;6.72;;
68523;SDS011;55524;51.380;13.372;2023-02-22T15:42:57;17.63;;;8.02;;
68523;SDS011;55524;51.380;13.372;2023-02-22T15:45:26;13.70;;;7.53;;
68523;SDS011;55524;51.380;13.372;2023-02-22T15:47:54;24.30;;;12.65;;
68523;SDS011;55524;51.380;13.372;2023-02-22T15:50:26;32.33;;;20.63;;
68523;SDS011;55524;51.380;13.372;2023-02-22T15:53:01;15.77;;;7.47;;
68523;SDS011;55524;51.380;13.372;2023-02-22T15:55:33;16.67;;;7.43;;
68523;SDS011;55524;51.380;13.372;2023-02-22T15:58:07;20.70;;;7.88;;
68523;SDS011;55524;51.380;13.372;2023-02-22T16:00:36;15.95;;;8.27;;
68523;SDS011;55524;51.380;13.372;2023-02-22T16:03:09;30.27;;;11.25;;
68523;SDS011;55524;51.380;13.372;2023-02-22T16:05:48;20.30;;;9.00;;
68523;SDS011;55524;51.380;13.372;2023-02-22T16:10:51;16.58;;;7.95;;
68523;SDS011;55524;51.380;13.372;2023-02-22T16:13:25;14.93;;;7.60;;
68523;SDS011;55524;51.380;13.372;2023-02-22T16:18:46;19.90;;;9.05;;
68523;SDS011;55524;51.380;13.372;2023-02-22T16:21:15;16.85;;;7.95;;
68523;SDS011;55524;51.380;13.372;2023-02-22T16:28:54;13.05;;;6.80;;
68523;SDS011;55524;51.380;13.372;2023-02-22T16:31:22;14.63;;;7.00;;
68523;SDS011;55524;51.380;13.372;2023-02-22T16:33:53;13.18;;;6.80;;
68523;SDS011;55524;51.380;13.372;2023-02-22T16:36:22;16.20;;;6.30;;
68523;SDS011;55524;51.380;13.372;2023-02-22T16:39:01;14.27;;;6.68;;
68523;SDS011;55524;51.380;13.372;2023-02-22T16:41:36;15.23;;;6.60;;
68523;SDS011;55524;51.380;13.372;2023-02-22T16:44:02;10.15;;;6.28;;
68523;SDS011;55524;51.380;13.372;2023-02-22T16:46:31;9.43;;;5.28;;
68523;SDS011;55524;51.380;13.372;2023-02-22T16:48:58;14.18;;;5.75;;
68523;SDS011;55524;51.380;13.372;2023-02-22T16:51:27;11.45;;;5.45;;
68523;SDS011;55524;51.380;13.372;2023-02-22T16:54:03;15.00;;;6.30;;
68523;SDS011;55524;51.380;13.372;2023-02-22T16:56:35;15.65;;;5.57;;
68523;SDS011;55524;51.380;13.372;2023-02-22T16:59:13;11.32;;;6.00;;
68523;SDS011;55524;51.380;13.372;2023-02-22T17:01:41;10.95;;;6.30;;
68523;SDS011;55524;51.380;13.372;2023-02-22T17:04:18;24.88;;;9.70;;
68523;SDS011;55524;51.380;13.372;2023-02-22T17:06:46;63.58;;;24.52;;
68523;SDS011;55524;51.380;13.372;2023-02-22T17:09:13;28.52;;;12.07;;
68523;SDS011;55524;51.380;13.372;2023-02-22T17:11:40;14.20;;;7.43;;
68523;SDS011;55524;51.380;13.372;2023-02-22T17:14:07;11.95;;;5.65;;
68523;SDS011;55524;51.380;13.372;2023-02-22T17:16:40;9.38;;;5.15;;
68523;SDS011;55524;51.380;13.372;2023-02-22T17:19:09;10.05;;;5.70;;
68523;SDS011;55524;51.380;13.372;2023-02-22T17:21:41;13.13;;;5.97;;
68523;SDS011;55524;51.380;13.372;2023-02-22T17:24:11;14.27;;;5.72;;
68523;SDS011;55524;51.380;13.372;2023-02-22T17:26:38;10.20;;;5.83;;
68523;SDS011;55524;51.380;13.372;2023-02-22T17:29:05;8.93;;;5.65;;
68523;SDS011;55524;51.380;13.372;2023-02-22T17:31:31;11.80;;;5.70;;
68523;SDS011;55524;51.380;13.372;2023-02-22T17:34:02;11.43;;;4.85;;
68523;SDS011;55524;51.380;13.372;2023-02-22T17:36:30;15.60;;;5.32;;
68523;SDS011;55524;51.380;13.372;2023-02-22T17:38:57;13.38;;;6.22;;
68523;SDS011;55524;51.380;13.372;2023-02-22T17:41:24;16.02;;;5.30;;
68523;SDS011;55524;51.380;13.372;2023-02-22T17:43:51;18.40;;;4.80;;
68523;SDS011;55524;51.380;13.372;2023-02-22T17:46:18;16.83;;;4.55;;
68523;SDS011;55524;51.380;13.372;2023-02-22T17:48:45;18.65;;;4.68;;
68523;SDS011;55524;51.380;13.372;2023-02-22T17:51:14;15.43;;;4.97;;
68523;SDS011;55524;51.380;13.372;2023-02-22T17:53:41;17.05;;;4.82;;